Time;durP1;ratioP1;P1;durP2;ratioP2;P2;SDS_P1;SDS_P2;PMS_P1;PMS_P2;Temp;Humidity;BMP_temperature;BMP_pressure;BME280_temperature;BME280_humidity;BME280_pressure;Samples;Min_cycle;Max_cycle;Signal;HPM_P1;HPM_P2
2023/10/12 00:00:48;;;;;;;9.07;0.60;;;;;;;-146.25;100.00;52394.56;2105217;28;35922;-69
2023/10/12 00:01:59;;;;;;;9.40;0.70;;;;;;;-146.25;100.00;52400.63;2104769;28;38546;-70
2023/10/12 00:03:01;;;;;;;8.23;0.75;;;;;;;-146.25;100.00;52416.84;2104933;28;36174;-70
2023/10/12 00:04:11;;;;;;;8.48;0.70;;;;;;;-146.25;100.00;52386.44;2105414;28;20045;-70
2023/10/12 00:05:18;;;;;;;7.40;0.63;;;;;;;-146.25;100.00;52400.63;2097702;28;35840;-70
2023/10/12 00:06:20;;;;;;;9.13;0.65;;;;;;;-146.25;100.00;52422.94;2097863;28;34678;-69
2023/10/12 00:07:33;;;;;;;10.52;1.17;;;;;;;-146.25;100.00;52414.84;2104616;28;34773;-70
2023/10/12 00:08:37;;;;;;;9.60;0.93;;;;;;;-146.25;100.00;52412.81;2104363;28;38645;-69
2023/10/12 00:09:38;;;;;;;9.70;1.00;;;;;;;-146.25;100.00;52390.50;2097646;28;20228;-70
2023/10/12 00:10:41;;;;;;;8.75;0.68;;;;;;;-146.25;100.00;52382.38;2104780;28;37496;-70
2023/10/12 00:12:30;;;;;;;13.40;1.05;;;;;;;-146.25;100.00;52437.13;2106376;28;20163;-69
2023/10/12 00:13:11;;;;;;;11.57;0.80;;;;;;;-146.25;100.00;52414.84;2097693;28;32394;-70
2023/10/12 00:14:14;;;;;;;7.82;0.80;;;;;;;-146.25;100.00;52398.59;2105590;28;36734;-70
2023/10/12 00:16:24;;;;;;;7.40;0.70;;;;;;;-146.25;100.00;52414.84;2104776;28;38451;-70
2023/10/12 00:17:26;;;;;;;14.98;1.23;;;;;;;-146.25;100.00;52392.53;2103683;28;37567;-70
2023/10/12 00:18:28;;;;;;;7.57;0.90;;;;;;;-146.25;100.00;52418.88;2105648;28;32886;-70
2023/10/12 00:19:30;;;;;;;7.47;0.57;;;;;;;-146.25;100.00;52378.34;2105265;28;37436;-70
2023/10/12 00:20:35;;;;;;;12.50;1.10;;;;;;;-146.25;100.00;52410.78;2105437;28;20080;-70
2023/10/12 00:21:37;;;;;;;12.27;1.00;;;;;;;-146.25;100.00;52412.81;2112688;28;38191;-70
2023/10/12 00:22:39;;;;;;;17.27;1.10;;;;;;;-146.25;100.00;52388.47;2113270;28;38628;-70
2023/10/12 00:23:43;;;;;;;15.70;1.17;;;;;;;-146.25;100.00;52390.50;2105453;28;33540;-70
2023/10/12 00:24:45;;;;;;;9.73;1.00;;;;;;;-146.25;100.00;52398.59;2112940;28;37801;-70
2023/10/12 00:25:58;;;;;;;15.50;1.63;;;;;;;-146.25;100.00;52412.81;2113038;28;20045;-70
2023/10/12 00:27:03;;;;;;;12.52;1.30;;;;;;;-146.25;100.00;52388.47;2105066;28;33526;-70
2023/10/12 00:28:06;;;;;;;15.55;1.33;;;;;;;-146.25;100.00;52349.94;2113149;28;36037;-70
2023/10/12 00:29:09;;;;;;;11.95;0.88;;;;;;;-146.25;100.00;52410.78;2113013;28;21456;-69
2023/10/12 00:30:12;;;;;;;12.85;1.27;;;;;;;-146.25;100.00;52412.81;2104971;28;20044;-70
2023/10/12 00:31:19;;;;;;;12.98;0.93;;;;;;;-146.25;100.00;52380.38;2105529;28;20122;-70
2023/10/12 00:32:23;;;;;;;11.15;0.80;;;;;;;-146.25;100.00;52378.34;2104912;28;20033;-70
2023/10/12 00:33:25;;;;;;;9.82;0.90;;;;;;;-146.25;100.00;52437.13;2104743;28;33116;-70
2023/10/12 00:34:27;;;;;;;13.23;1.05;;;;;;;-146.25;100.00;52408.75;2104445;28;32527;-70
2023/10/12 00:35:31;;;;;;;11.25;1.15;;;;;;;-146.25;100.00;52427.00;2104735;28;27997;-70
2023/10/12 00:36:45;;;;;;;18.85;1.38;;;;;;;-146.25;100.00;52384.41;2105354;28;20929;-70
2023/10/12 00:37:48;;;;;;;18.10;1.40;;;;;;;-146.25;100.00;52439.16;2105158;28;30021;-70
2023/10/12 00:38:55;;;;;;;13.02;1.25;;;;;;;-146.25;100.00;52372.25;2105706;28;20091;-70
2023/10/12 00:39:58;;;;;;;15.07;1.17;;;;;;;-146.25;100.00;52445.25;2104699;28;31680;-70
2023/10/12 00:41:07;;;;;;;12.23;1.15;;;;;;;-146.25;100.00;52404.69;2105025;28;20086;-69
2023/10/12 00:42:08;;;;;;;10.90;1.33;;;;;;;-146.25;100.00;52388.47;2112889;28;30769;-70
2023/10/12 00:43:14;;;;;;;16.00;1.20;;;;;;;-146.25;100.00;52433.06;2113257;28;27511;-70
2023/10/12 00:44:18;;;;;;;11.98;0.90;;;;;;;-146.25;100.00;52384.41;2112602;28;23650;-70
2023/10/12 00:45:27;;;;;;;14.20;1.20;;;;;;;-146.25;100.00;52418.88;2105309;28;28700;-70
2023/10/12 00:47:43;;;;;;;11.82;0.90;;;;;;;-146.25;100.00;52396.59;2105031;28;20186;-70
2023/10/12 00:48:48;;;;;;;12.50;1.10;;;;;;;-146.25;100.00;52441.19;2105084;28;25200;-70
2023/10/12 00:49:50;;;;;;;10.95;1.17;;;;;;;-146.25;100.00;52376.31;2107152;28;20169;-70
2023/10/12 00:50:56;;;;;;;12.85;1.00;;;;;;;-146.25;100.00;52420.91;2104625;28;28967;-71
2023/10/12 00:52:23;;;;;;;13.00;1.45;;;;;;;-146.25;100.00;52392.53;2104811;28;20083;-70
2023/10/12 00:53:31;;;;;;;14.82;1.75;;;;;;;-146.25;100.00;52388.47;2105609;28;25174;-70
2023/10/12 00:55:37;;;;;;;17.70;1.27;;;;;;;-146.25;100.00;52420.91;2104668;28;20178;-70
2023/10/12 00:56:43;;;;;;;12.50;1.23;;;;;;;-146.25;100.00;52364.13;2105570;28;20174;-70
2023/10/12 00:57:45;;;;;;;15.13;1.17;;;;;;;-146.25;100.00;52404.69;2096855;28;30942;-70
2023/10/12 00:58:47;;;;;;;13.45;1.38;;;;;;;-146.25;100.00;52394.56;2104543;28;29125;-70
2023/10/12 00:59:51;;;;;;;12.43;1.15;;;;;;;-146.25;100.00;52418.88;2105473;28;24284;-71
2023/10/12 01:00:54;;;;;;;17.10;1.25;;;;;;;-146.25;100.00;52418.88;2113794;28;20032;-70
2023/10/12 01:01:55;;;;;;;10.15;0.88;;;;;;;-146.25;100.00;52386.44;2104807;28;20045;-70
2023/10/12 01:03:06;;;;;;;12.45;1.40;;;;;;;-146.25;100.00;52412.81;2104770;28;20044;-70
2023/10/12 01:04:15;;;;;;;13.50;1.92;;;;;;;-146.25;100.00;52449.31;2111989;28;35864;-70
2023/10/12 01:05:18;;;;;;;15.35;1.20;;;;;;;-146.25;100.00;52380.38;2095601;28;33419;-70
2023/10/12 01:06:28;;;;;;;16.52;1.48;;;;;;;-146.25;100.00;52408.75;2088610;28;28415;-70
2023/10/12 01:07:34;;;;;;;16.98;1.38;;;;;;;-146.25;100.00;52416.84;2104787;28;31775;-70
2023/10/12 01:08:46;;;;;;;11.73;1.00;;;;;;;-146.25;100.00;52410.78;2105395;28;25700;-69
2023/10/12 01:09:48;;;;;;;23.98;1.60;;;;;;;-146.25;100.00;52388.47;2103963;28;36057;-70
2023/10/12 01:10:50;;;;;;;9.07;1.17;;;;;;;-146.25;100.00;52410.78;2106007;28;28349;-70
2023/10/12 01:11:57;;;;;;;14.40;1.30;;;;;;;-146.25;100.00;52388.47;2112754;28;24112;-70
2023/10/12 01:13:02;;;;;;;14.35;1.45;;;;;;;-146.25;100.00;52408.75;2105020;28;28389;-70
2023/10/12 01:14:09;;;;;;;15.55;1.58;;;;;;;-146.25;100.00;52408.75;2105472;28;20047;-70
2023/10/12 01:15:12;;;;;;;15.73;1.30;;;;;;;-146.25;100.00;52386.44;2104467;28;28309;-70
2023/10/12 01:17:40;;;;;;;15.70;1.73;;;;;;;-146.25;100.00;52416.84;2091251;28;22106;-70
2023/10/12 01:18:45;;;;;;;12.00;1.05;;;;;;;-146.25;100.00;52439.16;2103660;28;20059;-69
2023/10/12 01:19:51;;;;;;;17.27;1.70;;;;;;;-146.25;100.00;52400.63;2104520;28;23178;-70
2023/10/12 01:20:53;;;;;;;13.25;1.23;;;;;;;-146.25;100.00;52422.94;2104812;28;30943;-69
2023/10/12 01:21:55;;;;;;;15.05;1.75;;;;;;;-146.25;100.00;52388.47;2113059;28;24619;-70
2023/10/12 01:23:00;;;;;;;15.38;2.13;;;;;;;-146.25;100.00;52376.31;2113083;28;20048;-70
2023/10/12 01:24:11;;;;;;;12.50;1.20;;;;;;;-146.25;100.00;52386.44;2104630;28;26822;-70
2023/10/12 01:25:28;;;;;;;19.98;1.35;;;;;;;-146.25;100.00;52410.78;2096842;28;20134;-70
2023/10/12 01:26:31;;;;;;;10.40;1.15;;;;;;;-146.25;100.00;52416.84;2100344;28;20029;-70
2023/10/12 01:27:33;;;;;;;15.43;1.05;;;;;;;-146.25;100.00;52408.75;2104424;28;33978;-70
2023/10/12 01:28:35;;;;;;;11.48;1.13;;;;;;;-146.25;100.00;52408.75;2104624;28;25480;-70
2023/10/12 01:29:41;;;;;;;16.80;1.40;;;;;;;-146.25;100.00;52437.13;2104912;28;20155;-69
2023/10/12 01:30:44;;;;;;;18.35;1.50;;;;;;;-146.25;100.00;52416.84;2104418;28;24673;-69
2023/10/12 01:32:22;;;;;;;16.88;1.92;;;;;;;-146.25;100.00;52433.06;2104355;28;26417;-70
2023/10/12 01:33:15;;;;;;;13.60;1.02;;;;;;;-146.25;100.00;52427.00;2104605;28;34109;-69
2023/10/12 01:34:20;;;;;;;16.00;1.02;;;;;;;-146.25;100.00;52429.03;2105045;28;26121;-69
2023/10/12 01:35:38;;;;;;;14.55;1.52;;;;;;;-146.25;100.00;52427.00;2104005;28;31354;-69
2023/10/12 01:36:43;;;;;;;13.02;1.02;;;;;;;-146.25;100.00;52406.72;2104976;28;20209;-69
2023/10/12 01:37:55;;;;;;;15.35;1.30;;;;;;;-146.25;100.00;52400.63;2104203;28;20025;-69
2023/10/12 01:39:11;;;;;;;10.63;0.93;;;;;;;-146.25;100.00;52382.38;2104786;28;25148;-69
2023/10/12 01:40:17;;;;;;;12.63;1.55;;;;;;;-146.25;100.00;52398.59;2104933;28;26640;-69
2023/10/12 01:41:27;;;;;;;13.10;1.23;;;;;;;-146.25;100.00;52382.38;2104573;28;25871;-68
2023/10/12 01:43:47;;;;;;;17.13;1.42;;;;;;;-146.25;100.00;52433.06;2104304;28;33267;-69
2023/10/12 01:44:51;;;;;;;15.68;1.42;;;;;;;-146.25;100.00;52422.94;2096951;28;20167;-68
2023/10/12 01:46:21;;;;;;;13.48;1.30;;;;;;;-146.25;100.00;52420.91;2087481;28;24982;-68
2023/10/12 01:47:18;;;;;;;12.10;1.50;;;;;;;-146.25;100.00;52386.44;2099215;28;20071;-68
2023/10/12 01:48:22;;;;;;;16.77;1.20;;;;;;;-146.25;100.00;52406.72;2105112;28;29440;-68
2023/10/12 01:49:24;;;;;;;11.18;1.13;;;;;;;-146.25;100.00;52408.75;2104761;28;21181;-67
2023/10/12 01:50:27;;;;;;;16.25;1.60;;;;;;;-146.25;100.00;52392.53;2104176;28;29124;-68
2023/10/12 01:51:29;;;;;;;10.90;1.10;;;;;;;-146.25;100.00;52445.25;2104351;28;31224;-68
2023/10/12 01:52:34;;;;;;;13.35;1.60;;;;;;;-146.25;100.00;52398.59;2104258;28;27858;-68
2023/10/12 01:53:37;;;;;;;16.30;1.77;;;;;;;-146.25;100.00;52392.53;2105443;28;20814;-68
2023/10/12 01:54:43;;;;;;;12.45;1.33;;;;;;;-146.25;100.00;52400.63;2112970;28;26513;-67
2023/10/12 01:55:46;;;;;;;14.23;1.52;;;;;;;-146.25;100.00;52410.78;2112653;28;20040;-68
2023/10/12 01:56:52;;;;;;;11.95;0.93;;;;;;;-146.25;100.00;52412.81;2112819;28;20107;-67
2023/10/12 01:57:54;;;;;;;14.43;1.50;;;;;;;-146.25;100.00;52418.88;2112583;28;20109;-67
2023/10/12 01:58:56;;;;;;;11.27;1.17;;;;;;;-146.25;100.00;52406.72;2104571;28;20891;-67
2023/10/12 02:00:00;;;;;;;12.75;1.17;;;;;;;-146.25;100.00;52429.03;2104585;28;20082;-66
2023/10/12 02:01:08;;;;;;;14.15;1.17;;;;;;;-146.25;100.00;52412.81;2095466;28;20893;-67
2023/10/12 02:02:14;;;;;;;13.35;1.40;;;;;;;-146.25;100.00;52422.94;2088774;28;23422;-66
2023/10/12 02:03:17;;;;;;;11.10;1.17;;;;;;;-146.25;100.00;52412.81;2097945;28;30694;-67
2023/10/12 02:04:21;;;;;;;12.05;1.05;;;;;;;-146.25;100.00;52392.53;2104266;28;31935;-67
2023/10/12 02:05:25;;;;;;;14.10;1.50;;;;;;;-146.25;100.00;52433.06;2104348;28;28130;-66
2023/10/12 02:06:30;;;;;;;16.88;1.42;;;;;;;-146.25;100.00;52408.75;2112422;28;25046;-67
2023/10/12 02:07:33;;;;;;;14.65;1.40;;;;;;;-146.25;100.00;52424.97;2112157;28;23609;-66
2023/10/12 02:08:45;;;;;;;10.50;1.13;;;;;;;-146.25;100.00;52457.41;2104879;28;31212;-66
2023/10/12 02:09:49;;;;;;;14.90;1.65;;;;;;;-146.25;100.00;52402.66;2105137;28;20040;-66
2023/10/12 02:11:04;;;;;;;14.18;1.48;;;;;;;-146.25;100.00;52412.81;2103809;28;30111;-67
2023/10/12 02:12:12;;;;;;;15.52;1.35;;;;;;;-146.25;100.00;52408.75;2097997;28;27054;-66
2023/10/12 02:13:14;;;;;;;17.90;1.80;;;;;;;-146.25;100.00;52453.34;2097564;28;33285;-66
2023/10/12 02:14:32;;;;;;;13.20;1.50;;;;;;;-146.25;100.00;52402.66;2089266;28;20139;-66
2023/10/12 02:15:34;;;;;;;9.60;1.02;;;;;;;-146.25;100.00;52354.00;2100236;28;20958;-66
2023/10/12 02:16:38;;;;;;;18.60;1.60;;;;;;;-146.25;100.00;52394.56;2112609;28;25780;-66
2023/10/12 02:17:42;;;;;;;13.40;1.30;;;;;;;-146.25;100.00;52427.00;2111723;27;34262;-66
2023/10/12 02:18:47;;;;;;;13.18;1.10;;;;;;;-146.25;100.00;52412.81;2104907;28;30018;-65
2023/10/12 02:19:49;;;;;;;16.13;2.30;;;;;;;-146.25;100.00;52435.09;2104613;28;26272;-66
2023/10/12 02:21:26;;;;;;;17.60;1.35;;;;;;;-146.25;100.00;52424.97;2104741;28;26409;-66
2023/10/12 02:22:24;;;;;;;11.15;0.73;;;;;;;-146.25;100.00;52404.69;2100992;28;38295;-67
2023/10/12 02:23:32;;;;;;;9.45;1.40;;;;;;;-146.25;100.00;52396.59;2096145;28;23116;-66
2023/10/12 02:24:35;;;;;;;14.20;1.40;;;;;;;-146.25;100.00;52441.19;2105029;28;20159;-66
2023/10/12 02:25:50;;;;;;;15.30;1.10;;;;;;;-146.25;100.00;52384.41;2104881;28;20956;-66
2023/10/12 02:26:52;;;;;;;18.88;1.50;;;;;;;-146.25;100.00;52451.31;2112021;28;29880;-66
2023/10/12 02:27:58;;;;;;;15.93;1.50;;;;;;;-146.25;100.00;52429.03;2112684;28;26092;-66
2023/10/12 02:30:18;;;;;;;11.77;1.40;;;;;;;-146.25;100.00;52429.03;2103958;28;31257;-66
2023/10/12 02:31:28;;;;;;;14.63;1.40;;;;;;;-146.25;100.00;52402.66;2106740;28;26365;-66
2023/10/12 02:32:46;;;;;;;13.02;1.10;;;;;;;-146.25;100.00;52412.81;2111201;28;20250;-66
2023/10/12 02:33:50;;;;;;;14.70;1.58;;;;;;;-146.25;100.00;52416.84;2103478;28;36348;-66
2023/10/12 02:34:57;;;;;;;11.82;1.80;;;;;;;-146.25;100.00;52410.78;2103474;28;30135;-66
2023/10/12 02:35:59;;;;;;;12.43;1.45;;;;;;;-146.25;100.00;52418.88;2105393;28;20929;-66
2023/10/12 02:38:09;;;;;;;15.90;1.48;;;;;;;-146.25;100.00;52400.63;2104649;28;23091;-66
2023/10/12 02:39:15;;;;;;;14.27;1.50;;;;;;;-146.25;100.00;52412.81;2103780;28;30439;-65
2023/10/12 02:40:17;;;;;;;20.42;1.70;;;;;;;-146.25;100.00;52400.63;2103865;28;20985;-66
2023/10/12 02:41:24;;;;;;;12.55;1.60;;;;;;;-146.25;100.00;52416.84;2104822;28;20886;-66
2023/10/12 02:42:38;;;;;;;18.67;1.95;;;;;;;-146.25;100.00;52418.88;2095670;28;20054;-66
2023/10/12 02:43:43;;;;;;;14.65;1.58;;;;;;;-146.25;100.00;52410.78;2091423;28;27649;-65
2023/10/12 02:46:04;;;;;;;13.35;1.63;;;;;;;-146.25;100.00;52378.34;2105298;28;20373;-66
2023/10/12 02:47:17;;;;;;;13.60;1.45;;;;;;;-146.25;100.00;52392.53;2104763;28;28381;-67
2023/10/12 02:48:29;;;;;;;14.93;1.80;;;;;;;-146.25;100.00;52433.06;2097266;28;33231;-66
2023/10/12 02:49:38;;;;;;;13.68;1.40;;;;;;;-146.25;100.00;52433.06;2112458;28;30993;-66
2023/10/12 02:50:57;;;;;;;16.08;1.73;;;;;;;-146.25;100.00;52427.00;2111723;28;27170;-66
2023/10/12 02:52:05;;;;;;;18.00;1.77;;;;;;;-146.25;100.00;52424.97;2104615;28;29795;-66
2023/10/12 02:53:11;;;;;;;20.55;1.90;;;;;;;-146.25;100.00;52392.53;2103503;28;33760;-66
2023/10/12 02:54:15;;;;;;;19.48;1.80;;;;;;;-146.25;100.00;52418.88;2104355;28;20171;-66
2023/10/12 02:55:25;;;;;;;16.75;1.73;;;;;;;-146.25;100.00;52441.19;2103497;28;26559;-66
2023/10/12 02:56:31;;;;;;;17.00;2.08;;;;;;;-146.25;100.00;52439.16;2104952;28;28509;-66
2023/10/12 02:57:33;;;;;;;19.13;2.00;;;;;;;-146.25;100.00;52437.13;2111390;28;30486;-66
2023/10/12 02:58:35;;;;;;;16.58;1.60;;;;;;;-146.25;100.00;52435.09;2103834;28;24066;-66
2023/10/12 02:59:39;;;;;;;13.45;1.50;;;;;;;-146.25;100.00;52459.44;2103312;28;34146;-66
2023/10/12 03:00:47;;;;;;;20.55;1.92;;;;;;;-146.25;100.00;52362.13;2104892;28;31644;-66
2023/10/12 03:02:14;;;;;;;19.73;1.73;;;;;;;-146.25;100.00;52404.69;2104814;28;29093;-67
2023/10/12 03:03:25;;;;;;;18.75;1.92;;;;;;;-146.25;100.00;52420.91;2103912;28;31135;-65
2023/10/12 03:04:29;;;;;;;16.27;1.85;;;;;;;-146.25;100.00;52420.91;2109011;28;20047;-65
2023/10/12 03:05:32;;;;;;;15.23;1.30;;;;;;;-146.25;100.00;52427.00;2111863;28;30972;-66
2023/10/12 03:06:52;;;;;;;15.48;2.00;;;;;;;-146.25;100.00;52406.72;2104073;28;28605;-66
2023/10/12 03:07:56;;;;;;;14.95;1.40;;;;;;;-146.25;100.00;52435.09;2103970;28;30104;-65
2023/10/12 03:10:15;;;;;;;19.08;2.05;;;;;;;-146.25;100.00;52384.41;2104943;28;20040;-66
2023/10/12 03:11:20;;;;;;;17.70;1.75;;;;;;;-146.25;100.00;52453.34;2104021;28;20083;-66
2023/10/12 03:12:24;;;;;;;17.30;1.67;;;;;;;-146.25;100.00;52392.53;2097303;28;20041;-67
2023/10/12 03:13:38;;;;;;;16.65;1.98;;;;;;;-146.25;100.00;52382.38;2104060;28;21064;-66
2023/10/12 03:14:41;;;;;;;15.63;1.73;;;;;;;-146.25;100.00;52429.03;2104264;28;20676;-66
2023/10/12 03:15:59;;;;;;;11.73;1.90;;;;;;;-146.25;100.00;52416.84;2103990;28;20856;-66
2023/10/12 03:17:09;;;;;;;15.35;1.50;;;;;;;-146.25;100.00;52422.94;2103713;28;30392;-66
2023/10/12 03:18:12;;;;;;;14.90;2.22;;;;;;;-146.25;100.00;52422.94;2107056;28;20043;-66
2023/10/12 03:20:26;;;;;;;17.33;2.20;;;;;;;-146.25;100.00;52416.84;2105065;28;20265;-66
2023/10/12 03:21:33;;;;;;;13.65;1.50;;;;;;;-146.25;100.00;52433.06;2105292;28;20110;-66
2023/10/12 03:22:35;;;;;;;17.10;1.90;;;;;;;-146.25;100.00;52410.78;2105156;28;20988;-66
2023/10/12 03:23:39;;;;;;;18.02;1.70;;;;;;;-146.25;100.00;52439.16;2112345;28;20179;-66
2023/10/12 03:24:51;;;;;;;17.00;2.05;;;;;;;-146.25;100.00;52406.72;2112492;28;29602;-66
2023/10/12 03:25:52;;;;;;;13.07;1.58;;;;;;;-146.25;100.00;52418.88;2111749;28;32779;-66
2023/10/12 03:27:11;;;;;;;14.38;1.95;;;;;;;-146.25;100.00;52437.13;2112706;28;21744;-66
2023/10/12 03:28:29;;;;;;;15.38;1.75;;;;;;;-146.25;100.00;52431.06;2104226;28;27842;-66
2023/10/12 03:29:32;;;;;;;15.90;1.73;;;;;;;-146.25;100.00;52424.97;2095785;28;20057;-66
2023/10/12 03:30:34;;;;;;;11.98;1.48;;;;;;;-146.25;100.00;52441.19;2099733;28;35165;-66
2023/10/12 03:31:53;;;;;;;13.55;1.27;;;;;;;-146.25;100.00;52420.91;2113533;28;20125;-64
2023/10/12 03:32:56;;;;;;;21.45;1.83;;;;;;;-146.25;100.00;52424.97;2097640;28;34024;-65
2023/10/12 03:33:59;;;;;;;17.05;1.58;;;;;;;-146.25;100.00;52400.63;2098805;28;35516;-66
2023/10/12 03:35:00;;;;;;;13.85;1.85;;;;;;;-146.25;100.00;52406.72;2112914;28;36573;-65
2023/10/12 03:36:17;;;;;;;10.57;1.58;;;;;;;-146.25;100.00;52431.06;2105121;28;34025;-66
2023/10/12 03:37:44;;;;;;;15.38;2.13;;;;;;;-146.25;100.00;52441.19;2105366;28;37724;-66
2023/10/12 03:38:43;;;;;;;13.85;1.60;;;;;;;-146.25;100.00;52410.78;2104876;28;30912;-66
2023/10/12 03:40:50;;;;;;;15.30;1.67;;;;;;;-146.25;100.00;52443.22;2112731;28;29455;-66
2023/10/12 03:42:56;;;;;;;17.05;2.15;;;;;;;-146.25;100.00;52441.19;2105937;28;32541;-66
2023/10/12 03:44:11;;;;;;;12.55;1.50;;;;;;;-146.25;100.00;52420.91;2113151;28;34453;-66
2023/10/12 03:45:27;;;;;;;14.15;1.92;;;;;;;-146.25;100.00;52431.06;2111448;28;37075;-66
2023/10/12 03:46:32;;;;;;;16.05;2.25;;;;;;;-146.25;100.00;52408.75;2105624;28;33472;-66
2023/10/12 03:50:27;;;;;;;18.38;2.25;;;;;;;-146.25;100.00;52392.53;2088155;28;36326;-65
2023/10/12 03:51:39;;;;;;;16.15;2.22;;;;;;;-146.25;100.00;52427.00;2103128;28;36472;-66
2023/10/12 03:52:51;;;;;;;13.00;2.15;;;;;;;-146.25;100.00;52455.38;2104853;28;20159;-66
2023/10/12 03:53:56;;;;;;;18.60;2.53;;;;;;;-146.25;100.00;52435.09;2105529;28;35330;-66
2023/10/12 03:56:01;;;;;;;12.45;2.40;;;;;;;-146.25;100.00;52416.84;2113576;28;36079;-66
2023/10/12 03:57:26;;;;;;;11.23;2.17;;;;;;;-146.25;100.00;52449.31;2105275;28;36584;-66
2023/10/12 03:58:28;;;;;;;17.77;2.58;;;;;;;-146.25;100.00;52420.91;2105486;28;36510;-66
2023/10/12 03:59:44;;;;;;;16.50;2.50;;;;;;;-146.25;100.00;52420.91;2105154;28;33374;-66
2023/10/12 04:01:05;;;;;;;23.70;2.97;;;;;;;-146.25;100.00;52420.91;2105175;28;37681;-65
2023/10/12 04:02:15;;;;;;;14.07;2.35;;;;;;;-146.25;100.00;52429.03;2104804;28;39364;-65
2023/10/12 04:03:21;;;;;;;19.52;3.00;;;;;;;-146.25;100.00;52414.84;2108756;28;31324;-65
2023/10/12 04:04:29;;;;;;;16.33;2.65;;;;;;;-146.25;100.00;52384.41;2113412;28;28894;-66
2023/10/12 04:06:55;;;;;;;16.75;3.08;;;;;;;-146.25;100.00;52422.94;2104890;28;31194;-67
2023/10/12 04:09:14;;;;;;;18.05;3.20;;;;;;;-146.25;100.00;52445.25;2105306;28;38988;-66
2023/10/12 04:11:53;;;;;;;22.80;3.97;;;;;;;-146.25;100.00;52447.28;2104506;28;37263;-65
2023/10/12 04:13:02;;;;;;;21.67;3.70;;;;;;;-146.25;100.00;52400.63;2105581;28;31689;-66
2023/10/12 04:17:07;;;;;;;17.65;4.35;;;;;;;-146.25;100.00;52471.59;2104674;28;39790;-66
2023/10/12 04:18:13;;;;;;;18.08;4.90;;;;;;;-146.25;100.00;52416.84;2101292;28;20913;-66
2023/10/12 04:19:18;;;;;;;25.77;5.22;;;;;;;-146.25;100.00;52418.88;2104900;28;39549;-66
2023/10/12 04:20:23;;;;;;;15.02;4.57;;;;;;;-146.25;100.00;52455.38;2105503;28;36188;-66
2023/10/12 04:21:33;;;;;;;19.52;5.13;;;;;;;-146.25;100.00;52408.75;2105541;28;30968;-66
2023/10/12 04:24:42;;;;;;;18.30;4.95;;;;;;;-146.25;100.00;52439.16;2104874;28;30266;-66
2023/10/12 04:25:32;;;;;;;17.85;5.00;;;;;;;-146.25;100.00;52416.84;2098199;28;37833;-66
2023/10/12 04:28:49;;;;;;;20.58;5.07;;;;;;;-146.25;100.00;52457.41;2112844;28;35252;-66
2023/10/12 04:29:57;;;;;;;25.65;6.30;;;;;;;-146.25;100.00;52412.81;2105414;28;37974;-67
2023/10/12 04:32:17;;;;;;;24.58;6.78;;;;;;;-146.25;100.00;52412.81;2104963;28;37521;-66
2023/10/12 04:33:18;;;;;;;15.95;6.07;;;;;;;-146.25;100.00;52429.03;2105158;28;35930;-66
2023/10/12 04:34:26;;;;;;;21.75;6.93;;;;;;;-146.25;100.00;52412.81;2106230;28;20842;-66
2023/10/12 04:36:44;;;;;;;16.27;6.35;;;;;;;-146.25;100.00;52422.94;2104766;28;33906;-67
2023/10/12 04:37:49;;;;;;;17.33;6.63;;;;;;;-146.25;100.00;52418.88;2104726;28;34444;-66
2023/10/12 04:38:57;;;;;;;23.83;7.72;;;;;;;-146.25;100.00;52408.75;2105155;28;35573;-67
2023/10/12 04:40:32;;;;;;;24.88;7.85;;;;;;;-146.25;100.00;52404.69;2105405;28;34742;-66
2023/10/12 04:41:27;;;;;;;22.65;6.53;;;;;;;-146.25;100.00;52463.50;2103436;28;37126;-67
2023/10/12 04:42:34;;;;;;;24.05;7.07;;;;;;;-146.25;100.00;52418.88;2105407;28;20044;-66
2023/10/12 04:43:37;;;;;;;26.73;7.57;;;;;;;-146.25;100.00;52433.06;2104584;28;38461;-66
2023/10/12 04:44:43;;;;;;;23.45;7.60;;;;;;;-146.25;100.00;52445.25;2104557;28;33299;-66
2023/10/12 04:47:20;;;;;;;19.73;7.13;;;;;;;-146.25;100.00;52424.97;2104502;28;40298;-66
2023/10/12 04:48:31;;;;;;;26.20;7.80;;;;;;;-146.25;100.00;52445.25;2105343;28;32003;-65
2023/10/12 04:50:52;;;;;;;28.55;8.32;;;;;;;-146.25;100.00;52439.16;2105655;28;20129;-67
2023/10/12 04:52:15;;;;;;;23.75;7.45;;;;;;;-146.25;100.00;52427.00;2105139;28;40300;-66
2023/10/12 04:56:12;;;;;;;24.92;7.50;;;;;;;-146.25;100.00;52457.41;2097588;28;20042;-63
2023/10/12 04:57:14;;;;;;;29.70;7.30;;;;;;;-146.25;100.00;52416.84;2096789;28;34758;-63
2023/10/12 04:59:50;;;;;;;25.67;7.25;;;;;;;-146.25;100.00;52447.28;2096633;28;36102;-64
2023/10/12 05:00:55;;;;;;;22.10;7.95;;;;;;;-146.25;100.00;52475.66;2079576;28;35791;-63
2023/10/12 05:03:33;;;;;;;29.33;7.68;;;;;;;-146.25;100.00;52416.84;2096634;28;39140;-63
2023/10/12 05:05:55;;;;;;;30.00;8.27;;;;;;;-146.25;100.00;52453.34;2093320;28;20950;-63
2023/10/12 05:08:16;;;;;;;19.80;7.50;;;;;;;-146.25;100.00;52441.19;2088119;28;38200;-64
2023/10/12 05:09:18;;;;;;;23.95;7.05;;;;;;;-146.25;100.00;52429.03;2087745;28;41484;-63
2023/10/12 05:11:39;;;;;;;26.30;8.18;;;;;;;-146.25;100.00;52398.59;2079281;28;34381;-62
2023/10/12 05:12:40;;;;;;;24.10;7.55;;;;;;;-146.25;100.00;52398.59;2083246;28;34674;-63
2023/10/12 05:13:43;;;;;;;22.23;7.13;;;;;;;-146.25;100.00;52420.91;2096438;28;32419;-63
2023/10/12 05:14:48;;;;;;;23.10;7.47;;;;;;;-146.25;100.00;52441.19;2096639;28;38205;-65
2023/10/12 05:15:55;;;;;;;20.90;7.18;;;;;;;-146.25;100.00;52431.06;2096724;28;31538;-64
2023/10/12 05:16:57;;;;;;;20.70;7.28;;;;;;;-146.25;100.00;52410.78;2096586;28;38567;-63
2023/10/12 05:17:59;;;;;;;21.27;6.93;;;;;;;-146.25;100.00;52410.78;2095694;28;32822;-63
2023/10/12 05:19:01;;;;;;;26.90;7.53;;;;;;;-146.25;100.00;52497.97;2096917;28;34386;-64
2023/10/12 05:20:03;;;;;;;24.90;7.13;;;;;;;-146.25;100.00;52422.94;2096271;28;40153;-63
2023/10/12 05:21:08;;;;;;;21.77;7.28;;;;;;;-146.25;100.00;52467.56;2096932;28;33492;-63
2023/10/12 05:22:11;;;;;;;21.15;7.38;;;;;;;-146.25;100.00;52380.38;2096766;28;34955;-63
2023/10/12 05:23:16;;;;;;;26.80;6.55;;;;;;;-146.25;100.00;52412.81;2095252;28;34896;-63
2023/10/12 05:24:22;;;;;;;19.20;6.30;;;;;;;-146.25;100.00;52435.09;2100049;28;20481;-64
2023/10/12 05:25:32;;;;;;;21.42;6.20;;;;;;;-146.25;100.00;52422.94;2097071;28;20087;-63
2023/10/12 05:26:37;;;;;;;21.33;6.50;;;;;;;-146.25;100.00;52445.25;2097396;28;20179;-63
2023/10/12 05:27:39;;;;;;;20.02;6.30;;;;;;;-146.25;100.00;52447.28;2086783;28;33207;-64
2023/10/12 05:28:55;;;;;;;26.15;7.43;;;;;;;-146.25;100.00;52429.03;2088274;28;29893;-63
2023/10/12 05:30:05;;;;;;;27.35;6.88;;;;;;;-146.25;100.00;52408.75;2096566;28;36265;-63
2023/10/12 05:32:43;;;;;;;18.73;6.55;;;;;;;-146.25;100.00;52445.25;2096121;28;39888;-63
2023/10/12 05:33:38;;;;;;;34.95;7.43;;;;;;;-146.25;100.00;52441.19;2092850;28;35678;-64
2023/10/12 05:35:52;;;;;;;21.95;6.32;;;;;;;-146.25;100.00;52406.72;2088670;28;20037;-64
2023/10/12 05:36:54;;;;;;;23.73;6.53;;;;;;;-146.25;100.00;52416.84;2087174;28;36918;-63
2023/10/12 05:37:56;;;;;;;26.05;6.28;;;;;;;-146.25;100.00;52420.91;2089671;28;34338;-63
2023/10/12 05:39:12;;;;;;;26.25;6.53;;;;;;;-146.25;100.00;52431.06;2096312;28;35889;-63
2023/10/12 05:40:15;;;;;;;24.17;5.93;;;;;;;-146.25;100.00;52437.13;2087470;28;36771;-63
2023/10/12 05:42:39;;;;;;;20.65;6.35;;;;;;;-146.25;100.00;52429.03;2096176;28;36229;-63
2023/10/12 05:43:44;;;;;;;21.25;6.38;;;;;;;-146.25;100.00;52414.84;2097343;28;20916;-63
2023/10/12 05:44:48;;;;;;;26.38;6.72;;;;;;;-146.25;100.00;52455.38;2096352;28;33622;-64
2023/10/12 05:45:52;;;;;;;24.13;6.40;;;;;;;-146.25;100.00;52418.88;2087256;28;37926;-64
2023/10/12 05:46:59;;;;;;;24.75;6.38;;;;;;;-146.25;100.00;52420.91;2079502;28;36989;-64
2023/10/12 05:48:01;;;;;;;19.45;5.80;;;;;;;-146.25;100.00;52441.19;2088000;28;35434;-63